Latest Weather Observations for Bushy Park

IDT60801

Issued at 6:01 pm EST Sunday 2 August 2015 (issued every 30 minutes, with the page automatically refreshed every 10 minutes)

About weather observations | Map of weather stations | Latest weather observations for TAS | Other Formats
Station Details ID: 095003 Name: BUSHY PARK (BUSHY PARK ESTATES) Lat: -42.71 Lon: 146.90 Height: 27.0 m
Data from the previous 72 hours. | See also: Recent months at Bushy Park
Date/Time
EST
Temp
°C
App
Temp
°C
Dew
Point
Rel
Hum
%
Delta-T
°C
Wind Press
QNH
hPa
Press
MSL
hPa
Rain
since 9 am
mm
Dir
 
Spd
km/h
Gust
km/h
Spd
kts
Gust
kts
02/06:00pm 3.9 -1.1 1.4 84 1.0 N 17 22 9 12 - - 6.2
02/05:30pm 4.3 -1.6 1.5 82 1.1 NNW 22 32 12 17 - - 6.2
02/05:00pm 4.9 -0.8 0.8 75 1.6 N 20 32 11 17 - - 6.0
02/04:30pm 4.1 1.1 2.1 87 0.8 N 7 11 4 6 - - 6.0
02/04:00pm 5.4 0.8 1.4 75 1.6 N 15 20 8 11 - - 6.0
02/03:30pm 5.1 -0.2 -0.4 67 2.1 WNW 17 28 9 15 - - 6.0
02/03:00pm 5.3 2.1 2.9 84 1.0 NW 9 17 5 9 - - 6.0
02/02:30pm 5.0 1.4 3.1 87 0.8 N 11 17 6 9 - - 6.0
02/02:00pm 4.5 0.4 2.3 86 0.9 W 13 28 7 15 - - 5.8
02/01:30pm 5.2 1.1 2.5 83 1.1 NW 13 22 7 12 - - 5.2
02/01:00pm 6.2 2.3 3.6 83 1.1 WNW 13 26 7 14 - - 5.0
02/12:30pm 6.6 -1.4 3.8 82 1.2 NNW 35 56 19 30 - - 4.6
02/12:00pm 8.4 -1.1 3.8 73 2.0 NW 43 69 23 37 - - 1.2
02/11:55am 9.0 0.5 3.2 67 2.5 WNW 37 61 20 33 - - 0.4
02/11:54am 9.3 1.1 2.8 64 2.8 WNW 35 72 19 39 - - 0.2
02/11:43am 11.0 0.9 1.6 52 4.0 NNW 44 78 24 42 - - 0.0
02/11:31am 12.3 3.5 1.3 47 4.7 NNW 37 56 20 30 - - 0.0
02/11:30am 12.5 3.4 1.6 47 4.7 NNW 39 56 21 30 - - 0.0
02/11:00am 12.5 2.3 0.7 44 4.9 NNW 44 70 24 38 - - 0.0
02/10:57am 12.6 3.2 0.2 42 5.1 NNW 39 70 21 38 - - 0.0
02/10:36am 12.4 5.2 0.9 45 4.8 N 28 50 15 27 - - 0.0
02/10:30am 12.1 4.7 1.7 49 4.4 N 30 43 16 23 - - 0.0
02/10:15am 11.7 3.9 1.7 50 4.3 N 32 50 17 27 - - 0.0
02/10:00am 11.5 3.2 2.3 53 4.0 N 35 48 19 26 - - 0.0
02/09:30am 11.1 3.3 1.7 52 4.0 N 32 44 17 24 - - 0.0
02/09:00am 10.5 3.9 1.8 55 3.7 N 26 35 14 19 - - 1.8
02/08:30am 9.9 6.4 1.0 54 3.7 ENE 9 13 5 7 - - 1.8
02/08:00am 8.1 4.7 1.9 65 2.6 N 9 15 5 8 - - 1.8
02/07:30am 8.0 2.4 0.9 61 2.9 N 20 32 11 17 - - 1.8
02/07:00am 8.1 2.1 1.0 61 2.9 N 22 30 12 16 - - 1.8
02/06:30am 8.3 0.3 0.7 59 3.1 N 32 44 17 24 - - 1.8
02/06:00am 8.2 0.6 0.5 58 3.1 N 30 37 16 20 - - 1.8
02/05:30am 7.9 0.3 0.7 60 2.9 N 30 37 16 20 - - 1.8
02/05:00am 7.8 -0.4 0.6 60 2.9 N 33 46 18 25 - - 1.8
02/04:34am 7.9 -2.3 0.7 60 2.9 N 44 63 24 34 - - 1.8
02/04:30am 8.1 -2.6 0.4 58 3.1 N 46 63 25 34 - - 1.8
02/04:00am 7.6 -2.1 0.6 61 2.8 N 41 57 22 31 - - 1.8
02/03:54am 7.4 -1.8 1.0 64 2.6 N 39 57 21 31 - - 1.8
02/03:30am 7.6 -2.5 0.3 60 2.9 N 43 57 23 31 - - 1.8
02/03:00am 7.3 -1.2 0.6 62 2.7 N 35 54 19 29 - - 1.8
02/02:51am 7.0 -0.2 0.8 64 2.5 NNW 28 46 15 25 - - 1.8
02/02:30am 6.1 0.6 0.5 67 2.2 NNW 19 26 10 14 - - 1.8
02/02:00am 7.2 0.3 0.4 62 2.7 N 26 41 14 22 - - 1.8
02/01:30am 5.0 -0.2 0.4 72 1.8 WSW 17 28 9 15 - - 1.8
02/01:00am 4.5 1.4 0.4 75 1.6 ENE 6 13 3 7 - - 1.8
02/12:30am 7.8 3.2 -1.0 54 3.4 NNE 13 32 7 17 - - 1.8
02/12:00am 7.0 0.8 -0.1 60 2.8 NE 22 33 12 18 - - 1.8
 
Date/Time
EST
Temp
°C
App
Temp
°C
Dew
Point
Rel
Hum
%
Delta-T
°C
Wind Press
QNH
hPa
Press
MSL
hPa
Rain
since 9 am
mm
Dir
 
Spd
km/h
Gust
km/h
Spd
kts
Gust
kts
01/11:30pm 6.6 0.1 0.6 65 2.4 NNE 24 33 13 18 - - 1.8
01/11:00pm 6.1 0.9 0.2 66 2.3 NNE 17 24 9 13 - - 1.8
01/10:30pm 6.3 0.6 0.5 66 2.3 N 20 26 11 14 - - 1.8
01/10:00pm 6.1 -0.8 0.2 66 2.3 N 26 30 14 16 - - 1.8
01/09:30pm 5.9 -0.6 0.3 67 2.2 N 24 32 13 17 - - 1.8
01/09:00pm 4.9 0.1 0.5 73 1.7 N 15 20 8 11 - - 1.8
01/08:30pm 5.9 -0.2 0.3 67 2.2 N 22 30 12 16 - - 1.8
01/08:00pm 5.5 -0.2 0.4 70 2.0 N 20 30 11 16 - - 1.8
01/07:30pm 5.9 -0.7 -0.3 64 2.4 N 24 39 13 21 - - 1.8
01/07:00pm 4.9 -0.6 0.3 72 1.8 N 19 28 10 15 - - 1.8
01/06:30pm 4.0 0.0 0.6 78 1.3 N 11 13 6 7 - - 1.8
01/06:00pm 5.0 1.0 0.4 72 1.8 N 11 15 6 8 - - 1.8
01/05:30pm 6.6 2.0 -1.0 58 2.9 WNW 13 24 7 13 - - 1.8
01/05:00pm 6.6 2.5 -0.3 61 2.7 NNW 11 17 6 9 - - 1.8
01/04:30pm 7.2 0.7 0.4 62 2.7 N 24 32 13 17 - - 1.8
01/04:00pm 8.0 0.8 0.6 59 3.0 N 28 35 15 19 - - 1.8
01/03:30pm 7.6 1.2 0.9 62 2.7 N 24 30 13 16 - - 1.8
01/03:00pm 7.4 1.1 1.6 66 2.4 N 24 35 13 19 - - 1.8
01/02:30pm 8.9 3.4 0.5 55 3.4 N 19 30 10 16 - - 1.8
01/02:00pm 7.8 2.3 1.8 66 2.5 N 20 30 11 16 - - 1.8
01/01:30pm 7.6 2.8 2.6 70 2.1 N 17 24 9 13 - - 1.8
01/01:00pm 5.5 0.1 1.2 74 1.7 W 19 35 10 19 - - 1.6
01/12:30pm 8.3 1.3 2.1 65 2.6 N 28 41 15 22 - - 1.0
01/12:00pm 8.5 1.8 1.5 61 2.9 N 26 41 14 22 - - 1.0
01/11:30am 8.4 3.4 1.4 61 2.9 NW 17 39 9 21 - - 1.0
01/11:00am 8.3 4.1 1.5 62 2.8 NNW 13 28 7 15 - - 1.0
01/10:30am 7.3 2.4 2.3 70 2.1 N 17 26 9 14 - - 1.0
01/10:00am 5.7 -0.2 2.0 77 1.5 NNW 22 33 12 18 - - 1.0
01/09:30am 5.7 -0.4 0.6 70 2.0 WSW 22 41 12 22 - - 0.4
01/09:00am 6.5 2.8 2.4 75 1.7 NNW 11 19 6 10 - - 4.2
01/08:30am 4.8 0.7 2.1 83 1.1 NNW 13 19 7 10 - - 4.2
01/08:00am 4.8 -0.7 2.1 83 1.1 WNW 20 37 11 20 - - 4.2
01/07:30am 5.5 2.1 3.9 89 0.7 WNW 11 17 6 9 - - 3.2
01/07:00am 5.9 2.8 3.8 86 0.9 WNW 9 13 5 7 - - 3.0
01/06:30am 6.0 2.7 4.4 89 0.7 NNW 11 17 6 9 - - 2.8
01/06:00am 6.6 1.6 3.8 82 1.2 NNW 19 30 10 16 - - 2.4
01/05:30am 6.9 1.0 4.1 82 1.2 N 24 33 13 18 - - 1.8
01/05:00am 7.4 0.8 4.0 79 1.5 N 28 43 15 23 - - 1.4
01/04:30am 8.0 1.0 3.9 75 1.8 NNW 30 41 16 22 - - 0.6
01/04:06am 8.8 2.0 3.3 68 2.4 NNW 28 50 15 27 - - 0.2
01/04:00am 9.0 3.7 3.0 66 2.6 NNW 20 35 11 19 - - 0.0
01/03:30am 9.5 3.2 1.6 58 3.3 N 24 33 13 18 - - 0.0
01/03:00am 9.3 3.1 2.0 60 3.1 NNW 24 35 13 19 - - 0.0
01/02:30am 9.3 4.0 1.7 59 3.2 NNW 19 28 10 15 - - 0.0
01/02:00am 9.4 4.4 1.2 56 3.4 N 17 26 9 14 - - 0.0
01/01:30am 8.5 3.2 1.8 63 2.8 N 19 32 10 17 - - 0.0
01/01:00am 5.8 0.4 2.4 79 1.4 N 20 30 11 16 - - 0.0
01/12:30am 5.1 2.4 2.7 84 1.0 SSE 6 9 3 5 - - 0.0
01/12:00am 5.1 2.1 2.2 81 1.2 N 7 9 4 5 - - 0.0
 
Date/Time
EST
Temp
°C
App
Temp
°C
Dew
Point
Rel
Hum
%
Delta-T
°C
Wind Press
QNH
hPa
Press
MSL
hPa
Rain
since 9 am
mm
Dir
 
Spd
km/h
Gust
km/h
Spd
kts
Gust
kts
31/11:30pm 4.9 2.6 2.5 84 1.0 NNE 4 7 2 4 - - 0.0
31/11:00pm 4.9 2.0 2.5 84 1.0 N 7 9 4 5 - - 0.0
31/10:30pm 5.5 1.4 2.1 79 1.4 N 13 15 7 8 - - 0.0
31/10:00pm 6.4 2.1 1.2 69 2.1 NW 13 17 7 9 - - 0.0
31/09:30pm 5.6 1.1 1.9 77 1.5 N 15 19 8 10 - - 0.0
31/09:00pm 5.8 1.3 1.9 76 1.6 N 15 19 8 10 - - 0.0
31/08:30pm 5.3 0.7 1.8 78 1.4 N 15 20 8 11 - - 0.0
31/08:00pm 4.1 -0.1 1.8 85 0.9 N 13 15 7 8 - - 0.0
31/07:30pm 4.7 2.0 2.5 86 0.9 NNW 6 11 3 6 - - 0.0
31/07:00pm 5.6 3.6 2.4 80 1.3 S 2 9 1 5 - - 0.0
31/06:30pm 6.4 3.2 2.8 78 1.5 NE 9 11 5 6 - - 0.0
31/06:00pm 6.8 4.2 3.0 77 1.6 N 6 11 3 6 - - 0.0
31/05:30pm 7.1 3.5 2.8 74 1.8 NW 11 15 6 8 - - 0.0
31/05:00pm 8.5 4.0 2.1 64 2.7 W 15 19 8 10 - - 0.0
31/04:30pm 9.7 5.5 1.6 57 3.4 NW 13 20 7 11 - - 0.0
31/04:00pm 10.6 5.1 1.7 54 3.7 NNW 20 28 11 15 - - 0.0
31/03:30pm 11.3 6.4 2.0 53 4.0 NNW 17 24 9 13 - - 0.0
31/03:00pm 10.7 4.4 1.8 54 3.8 N 24 32 13 17 - - 0.0
31/02:30pm 10.6 3.1 1.4 53 3.8 N 30 39 16 21 - - 0.0
31/02:00pm 10.9 3.1 1.5 52 3.9 N 32 41 17 22 - - 0.0
31/01:30pm 11.0 4.3 1.3 51 4.1 N 26 35 14 19 - - 0.0
31/01:00pm 10.5 6.6 0.9 51 4.0 NW 11 19 6 10 - - 0.0
31/12:30pm 9.7 4.7 1.3 56 3.5 NNW 17 28 9 15 - - 0.0
31/12:00pm 9.5 2.7 1.1 56 3.4 N 26 33 14 18 - - 0.0
31/11:30am 9.2 2.0 1.0 56 3.3 N 28 35 15 19 - - 0.0
31/11:25am 9.1 1.9 0.8 56 3.4 N 28 33 15 18 - - 0.0
31/11:00am 8.5 5.6 1.5 61 2.9 W 6 9 3 5 - - 0.0
31/10:30am 8.8 5.8 0.7 57 3.3 NE 6 9 3 5 - - 0.0
31/10:00am 8.1 4.9 0.7 59 3.0 N 7 11 4 6 - - 0.0
31/09:30am 7.0 3.4 0.5 63 2.6 N 9 13 5 7 - - 0.0
31/09:00am 6.5 2.4 -0.2 62 2.6 N 11 17 6 9 - - 1.8
31/08:30am 5.3 0.8 -0.5 66 2.2 N 13 19 7 10 - - 1.8
31/08:00am 4.4 1.0 -0.3 71 1.8 NE 7 9 4 5 - - 1.8
31/07:30am 4.8 -1.0 -1.4 64 2.3 N 19 26 10 14 - - 1.8
31/07:00am 4.0 0.2 -0.5 72 1.7 NNE 9 13 5 7 - - 1.8
31/06:30am 5.3 0.8 -0.2 67 2.1 N 13 17 7 9 - - 1.8
31/06:00am 6.4 1.0 -1.6 56 3.0 W 17 39 9 21 - - 1.8
31/05:30am 6.2 0.2 -1.2 59 2.8 W 20 41 11 22 - - 1.8
31/05:00am 5.9 0.1 -1.6 58 2.8 WNW 19 32 10 17 - - 1.8
31/04:30am 6.2 0.6 -3.2 51 3.3 WNW 17 30 9 16 - - 1.8
31/04:00am 5.9 0.4 -1.9 57 2.9 NW 17 28 9 15 - - 1.8
31/03:30am 5.9 0.0 -0.9 61 2.6 NW 20 33 11 18 - - 1.8
31/03:00am 6.5 -0.2 -1.1 58 2.9 NNW 24 39 13 21 - - 1.8
31/02:30am 5.9 1.4 -0.6 63 2.5 NW 13 22 7 12 - - 1.8
31/02:00am 4.9 0.9 0.3 72 1.8 WNW 11 17 6 9 - - 1.8
31/01:30am 5.5 0.7 0.1 68 2.1 W 15 28 8 15 - - 1.8
31/01:00am 5.3 1.4 1.0 74 1.7 WNW 11 17 6 9 - - 1.8
31/12:30am 5.6 0.5 0.8 71 1.9 W 17 26 9 14 - - 1.8
31/12:00am 4.6 1.7 2.4 86 0.9 W 7 32 4 17 - - 1.6
 
Date/Time
EST
Temp
°C
App
Temp
°C
Dew
Point
Rel
Hum
%
Delta-T
°C
Wind Press
QNH
hPa
Press
MSL
hPa
Rain
since 9 am
mm
Dir
 
Spd
km/h
Gust
km/h
Spd
kts
Gust
kts
30/11:30pm 5.9 2.5 2.0 76 1.6 NW 9 13 5 7 - - 1.6
30/11:00pm 5.3 1.9 1.8 78 1.4 NNE 9 13 5 7 - - 1.4
30/10:30pm 6.1 2.1 0.8 69 2.1 W 11 17 6 9 - - 1.4
30/10:00pm 6.9 1.8 0.9 65 2.4 W 17 30 9 16 - - 1.4
30/09:30pm 7.2 2.4 2.4 71 2.0 W 17 32 9 17 - - 1.4
30/09:00pm 7.1 3.7 4.1 81 1.3 NW 11 19 6 10 - - 1.4
30/08:30pm 7.5 5.4 5.7 88 0.8 NNE 6 11 3 6 - - 1.2
30/08:00pm 8.2 5.8 5.1 81 1.4 NNW 7 11 4 6 - - 0.8
30/07:30pm 8.6 3.8 4.6 76 1.8 NW 19 32 10 17 - - 0.6
30/07:00pm 8.9 4.8 6.1 82 1.3 NW 17 35 9 19 - - 0.6
30/06:30pm 9.5 6.3 4.9 73 2.1 N 11 20 6 11 - - 0.0

Other Formats:

Comma delimited format used in spreadsheet applications
http://www.bom.gov.au/fwo/IDT60801/IDT60801.94964.axf

JavaScript Object Notation format (JSON) in row-major order
http://www.bom.gov.au/fwo/IDT60801/IDT60801.94964.json